Time;durP1;ratioP1;P1;durP2;ratioP2;P2;SDS_P1;SDS_P2;PMS_P1;PMS_P2;Temp;Humidity;BMP_temperature;BMP_pressure;BME280_temperature;BME280_humidity;BME280_pressure;Samples;Min_cycle;Max_cycle;Signal;HPM_P1;HPM_P2
2023/12/16 00:00:54;;;;;;;3.42;1.40;;;10.70;73.40;;;;;;5088479;28;20040;-72
2023/12/16 00:03:21;;;;;;;3.08;1.52;;;10.70;73.40;;;;;;5095498;28;20278;-72
2023/12/16 00:05:48;;;;;;;3.03;1.90;;;10.80;73.60;;;;;;5088978;28;20021;-74
2023/12/16 00:08:14;;;;;;;2.67;2.17;;;10.80;73.60;;;;;;5093000;28;20495;-73
2023/12/16 00:10:41;;;;;;;3.28;1.73;;;10.70;73.50;;;;;;5089142;28;20054;-72
2023/12/16 00:13:07;;;;;;;2.83;1.60;;;10.80;73.70;;;;;;5093275;28;20035;-74
2023/12/16 00:15:34;;;;;;;2.60;1.92;;;10.80;73.70;;;;;;5081994;28;20036;-72
2023/12/16 00:18:01;;;;;;;3.72;1.58;;;10.80;73.80;;;;;;5088430;28;20101;-72
2023/12/16 00:20:27;;;;;;;4.03;2.10;;;10.80;73.80;;;;;;5087545;28;20023;-73
2023/12/16 00:22:53;;;;;;;3.70;2.25;;;10.80;73.80;;;;;;5088374;28;20464;-73
2023/12/16 00:25:19;;;;;;;3.28;1.65;;;10.80;73.90;;;;;;5088520;28;20029;-72
2023/12/16 00:27:45;;;;;;;2.92;1.90;;;10.80;73.90;;;;;;5088311;28;20032;-72
2023/12/16 00:30:11;;;;;;;4.07;2.20;;;10.80;74.00;;;;;;5089857;28;20099;-72
2023/12/16 00:32:39;;;;;;;2.20;2.00;;;10.80;74.00;;;;;;5091994;28;20042;-74
2023/12/16 00:35:09;;;;;;;3.50;2.25;;;10.80;74.00;;;;;;5072423;28;20059;-75
2023/12/16 00:37:35;;;;;;;3.22;1.92;;;10.80;74.00;;;;;;5085732;28;20028;-73
2023/12/16 00:40:03;;;;;;;3.22;2.10;;;10.80;74.10;;;;;;5089524;28;20570;-74
2023/12/16 00:42:29;;;;;;;4.03;2.33;;;10.80;74.10;;;;;;5087699;28;20134;-72
2023/12/16 00:44:57;;;;;;;6.78;2.33;;;10.80;74.10;;;;;;5086342;28;20478;-72
2023/12/16 00:47:23;;;;;;;4.07;2.40;;;10.90;74.30;;;;;;5087426;28;20036;-76
2023/12/16 00:49:49;;;;;;;2.92;2.30;;;10.90;74.30;;;;;;5085332;28;20470;-73
2023/12/16 00:52:15;;;;;;;2.28;2.00;;;10.90;74.30;;;;;;5092409;28;20039;-74
2023/12/16 00:54:41;;;;;;;2.92;2.13;;;10.90;74.40;;;;;;5073265;28;20040;-73
2023/12/16 00:57:08;;;;;;;4.30;2.33;;;10.90;74.30;;;;;;5074405;28;20103;-75
2023/12/16 00:59:34;;;;;;;2.63;2.28;;;10.90;74.40;;;;;;5070818;28;20028;-74
2023/12/16 01:02:00;;;;;;;3.60;2.40;;;10.90;74.40;;;;;;5075954;28;20507;-73
2023/12/16 01:04:26;;;;;;;5.57;2.80;;;10.90;74.40;;;;;;5075381;28;20419;-73
2023/12/16 01:06:52;;;;;;;3.72;2.63;;;10.90;74.40;;;;;;5068076;28;20036;-75
2023/12/16 01:09:18;;;;;;;3.40;2.42;;;10.90;74.40;;;;;;5065903;28;20090;-74
2023/12/16 01:11:45;;;;;;;3.65;2.30;;;10.90;74.50;;;;;;5071779;28;20133;-74
2023/12/16 01:14:11;;;;;;;3.63;2.28;;;10.90;74.50;;;;;;5077912;28;20113;-74
2023/12/16 01:16:37;;;;;;;4.95;2.60;;;10.90;74.60;;;;;;5071623;28;20123;-74
2023/12/16 01:19:04;;;;;;;3.10;2.28;;;10.90;74.60;;;;;;5069839;28;20040;-74
2023/12/16 01:21:29;;;;;;;4.80;3.00;;;10.90;74.60;;;;;;5076528;28;20143;-72
2023/12/16 01:23:55;;;;;;;6.45;2.60;;;10.90;74.60;;;;;;5064354;28;20034;-72
2023/12/16 01:26:21;;;;;;;6.45;2.47;;;10.90;74.70;;;;;;5073775;28;20058;-72
2023/12/16 01:28:48;;;;;;;3.55;2.22;;;10.90;74.70;;;;;;5072897;28;20079;-72
2023/12/16 01:31:13;;;;;;;3.05;2.20;;;10.90;74.70;;;;;;5079211;28;20711;-72
2023/12/16 01:33:40;;;;;;;4.57;2.40;;;11.00;74.90;;;;;;5077480;28;20859;-73
2023/12/16 01:36:06;;;;;;;6.22;2.53;;;11.00;74.90;;;;;;5072188;28;20116;-72
2023/12/16 01:38:32;;;;;;;2.72;2.53;;;11.00;74.90;;;;;;5073508;28;20036;-73
2023/12/16 01:40:58;;;;;;;3.08;2.55;;;11.00;74.90;;;;;;5074624;28;20438;-72
2023/12/16 01:43:25;;;;;;;2.97;2.00;;;11.00;74.90;;;;;;5071205;28;20057;-72
2023/12/16 01:46:02;;;;;;;3.60;2.30;;;11.00;74.90;;;;;;5072928;28;20037;-72
2023/12/16 01:48:29;;;;;;;2.88;2.00;;;11.00;75.50;;;;;;5074408;28;20514;-73
2023/12/16 01:50:57;;;;;;;3.17;2.85;;;11.00;74.90;;;;;;5071332;28;20043;-72
2023/12/16 01:53:26;;;;;;;4.90;2.60;;;11.00;74.90;;;;;;5054422;28;20032;-73
2023/12/16 01:55:52;;;;;;;2.78;2.28;;;11.00;75.00;;;;;;5071328;28;20077;-72
2023/12/16 01:58:19;;;;;;;6.60;2.35;;;11.00;75.00;;;;;;5075426;28;20111;-72
2023/12/16 02:00:47;;;;;;;6.72;3.15;;;11.00;75.00;;;;;;5070197;28;20093;-72
2023/12/16 02:03:18;;;;;;;3.85;2.10;;;11.00;75.00;;;;;;5074465;28;20043;-72
2023/12/16 02:05:45;;;;;;;3.60;2.83;;;11.00;75.10;;;;;;5073547;28;20036;-73
2023/12/16 02:08:11;;;;;;;3.75;2.80;;;11.00;75.10;;;;;;5072878;28;20878;-73
2023/12/16 02:10:37;;;;;;;3.90;2.38;;;11.00;75.10;;;;;;5069736;28;20047;-72
2023/12/16 02:13:04;;;;;;;2.95;2.38;;;11.00;75.10;;;;;;5077207;28;20112;-72
2023/12/16 02:15:31;;;;;;;3.38;2.63;;;11.00;75.20;;;;;;5067510;28;20032;-72
2023/12/16 02:17:57;;;;;;;4.88;2.53;;;11.00;75.20;;;;;;5072151;28;20044;-71
2023/12/16 02:20:24;;;;;;;3.60;2.17;;;11.00;75.20;;;;;;5076365;28;20020;-72
2023/12/16 02:22:50;;;;;;;4.32;2.60;;;11.00;75.20;;;;;;5079058;28;20043;-72
2023/12/16 02:25:17;;;;;;;5.15;2.67;;;11.00;75.20;;;;;;5068825;28;20032;-73
2023/12/16 02:27:45;;;;;;;3.20;2.00;;;11.00;75.20;;;;;;5075966;28;20028;-73
2023/12/16 02:30:12;;;;;;;6.40;2.50;;;11.00;75.20;;;;;;5068894;28;20197;-72
2023/12/16 02:32:38;;;;;;;2.55;2.20;;;11.10;75.50;;;;;;5074043;22;20059;-77
2023/12/16 02:35:05;;;;;;;2.72;2.45;;;11.00;75.30;;;;;;5058544;28;20533;-79
2023/12/16 02:37:31;;;;;;;3.00;2.45;;;11.10;75.50;;;;;;5059622;28;20040;-76
2023/12/16 02:39:58;;;;;;;2.88;2.20;;;11.10;75.50;;;;;;5060233;28;20111;-77
2023/12/16 02:42:24;;;;;;;3.10;2.35;;;11.10;75.50;;;;;;5059183;28;20048;-78
2023/12/16 02:44:50;;;;;;;6.53;2.50;;;11.10;75.50;;;;;;5053397;28;20025;-75
2023/12/16 02:47:16;;;;;;;2.70;2.20;;;11.10;75.60;;;;;;5080624;22;20500;-96
2023/12/16 02:49:44;;;;;;;3.78;2.80;;;11.10;75.60;;;;;;5066850;28;20017;-92
2023/12/16 02:52:11;;;;;;;3.17;2.38;;;11.00;75.40;;;;;;5070867;28;20033;-96
2023/12/16 02:54:42;;;;;;;2.70;2.15;;;11.10;75.60;;;;;;5068932;28;20032;-95
2023/12/16 02:57:08;;;;;;;3.03;2.38;;;11.00;75.50;;;;;;5069466;28;20005;-94
2023/12/16 02:59:34;;;;;;;2.40;2.08;;;11.10;75.70;;;;;;5066980;28;20021;-94
2023/12/16 03:02:00;;;;;;;3.20;2.28;;;11.10;75.70;;;;;;5068543;28;20089;-95
2023/12/16 03:04:27;;;;;;;3.50;2.38;;;11.10;75.70;;;;;;5055376;28;20037;-96
2023/12/16 03:06:56;;;;;;;2.05;1.80;;;11.10;75.80;;;;;;5054311;28;20078;-96
2023/12/16 03:09:22;;;;;;;3.63;2.60;;;11.10;75.80;;;;;;5075851;28;20071;-94
2023/12/16 03:11:55;;;;;;;2.95;1.88;;;11.10;75.80;;;;;;5052678;28;20025;-95
2023/12/16 03:14:21;;;;;;;2.30;2.10;;;11.10;75.80;;;;;;5047858;28;20028;-95
2023/12/16 03:16:47;;;;;;;2.65;2.08;;;11.10;75.80;;;;;;5063279;28;20097;-94
2023/12/16 03:19:13;;;;;;;2.88;1.90;;;11.10;75.80;;;;;;5066399;28;20032;-95
2023/12/16 03:21:39;;;;;;;4.00;1.90;;;11.10;75.80;;;;;;5065262;28;20040;-96
2023/12/16 03:24:05;;;;;;;3.33;1.98;;;11.10;75.80;;;;;;5063725;28;20141;-95
2023/12/16 03:26:33;;;;;;;3.83;2.20;;;11.20;76.10;;;;;;5063376;28;20037;-94
2023/12/16 03:29:00;;;;;;;4.28;2.60;;;11.10;75.90;;;;;;5060514;28;20033;-94
2023/12/16 03:31:27;;;;;;;2.95;2.17;;;11.10;76.00;;;;;;5057412;28;20471;-95
2023/12/16 03:33:53;;;;;;;2.10;1.90;;;11.10;76.00;;;;;;5057136;28;20505;-95
2023/12/16 03:36:21;;;;;;;2.85;2.50;;;11.10;76.20;;;;;;5054223;28;20053;-95
2023/12/16 03:38:48;;;;;;;2.25;2.05;;;11.10;76.00;;;;;;5050478;28;20195;-94
2023/12/16 03:41:14;;;;;;;2.10;1.95;;;11.10;76.10;;;;;;5050377;28;20456;-96
2023/12/16 03:43:42;;;;;;;2.50;2.30;;;11.10;76.10;;;;;;5047205;28;20502;-95
2023/12/16 03:46:09;;;;;;;2.58;2.00;;;11.20;76.90;;;;;;5045858;28;20044;-94
2023/12/16 03:48:35;;;;;;;2.83;2.58;;;11.10;76.20;;;;;;5047579;28;20097;-93
2023/12/16 03:51:01;;;;;;;2.17;1.98;;;11.10;76.20;;;;;;5028145;28;20029;-94
2023/12/16 03:53:27;;;;;;;2.83;2.50;;;11.10;76.20;;;;;;5046887;28;20393;-95
2023/12/16 03:55:56;;;;;;;3.13;2.05;;;11.10;76.30;;;;;;5050195;28;20056;-94
2023/12/16 03:58:24;;;;;;;2.40;2.20;;;11.10;76.30;;;;;;5046900;28;20057;-95
2023/12/16 04:00:51;;;;;;;1.90;1.80;;;11.20;76.50;;;;;;5054881;28;20026;-96
2023/12/16 04:03:17;;;;;;;2.55;2.35;;;11.20;76.50;;;;;;5055652;28;20047;-94
2023/12/16 04:05:44;;;;;;;2.25;2.08;;;11.20;76.50;;;;;;5049645;28;20550;-92
2023/12/16 04:08:10;;;;;;;2.50;2.22;;;11.20;76.60;;;;;;5048673;28;20029;-88
2023/12/16 04:10:36;;;;;;;2.55;1.83;;;11.10;76.40;;;;;;5047120;28;20087;-86
2023/12/16 04:13:02;;;;;;;3.05;2.30;;;11.10;76.40;;;;;;5046104;28;20029;-85
2023/12/16 04:15:33;;;;;;;1.88;1.75;;;11.20;76.60;;;;;;5043322;28;20106;-93
2023/12/16 04:18:09;;;;;;;2.30;2.10;;;11.20;76.70;;;;;;5051220;28;20032;-96
2023/12/16 04:20:35;;;;;;;2.70;2.22;;;11.20;76.70;;;;;;5052082;28;20037;-95
2023/12/16 04:23:04;;;;;;;2.83;2.42;;;11.20;76.70;;;;;;5057119;28;20037;-96
2023/12/16 04:25:32;;;;;;;3.78;2.28;;;11.20;76.70;;;;;;5061739;28;20029;-96
2023/12/16 04:27:57;;;;;;;3.50;2.25;;;11.20;76.80;;;;;;5061527;28;20033;-96
2023/12/16 04:30:23;;;;;;;2.72;2.53;;;11.20;76.80;;;;;;5060020;28;20032;-96
2023/12/16 04:32:49;;;;;;;2.30;1.98;;;11.20;76.80;;;;;;5043929;28;20605;-96
2023/12/16 04:35:16;;;;;;;2.38;2.17;;;11.20;76.90;;;;;;5053494;28;20052;-95
2023/12/16 04:37:42;;;;;;;2.20;2.00;;;11.20;76.90;;;;;;5061180;28;20033;-95
2023/12/16 04:40:09;;;;;;;2.25;1.83;;;11.20;76.90;;;;;;5055220;28;20025;-95
2023/12/16 04:42:35;;;;;;;2.20;2.00;;;11.20;76.90;;;;;;5052879;28;20029;-93
2023/12/16 04:45:01;;;;;;;2.65;2.00;;;11.20;76.90;;;;;;5051138;28;20095;-94
2023/12/16 04:47:26;;;;;;;2.90;2.22;;;11.20;76.90;;;;;;5050079;28;20099;-95
2023/12/16 04:49:52;;;;;;;2.80;2.20;;;11.20;77.00;;;;;;5051901;28;20070;-94
2023/12/16 04:52:19;;;;;;;2.95;1.90;;;11.20;76.90;;;;;;5052344;28;20026;-95
2023/12/16 04:54:47;;;;;;;2.35;1.85;;;11.20;76.90;;;;;;5048109;28;20105;-92
2023/12/16 04:57:15;;;;;;;2.13;1.83;;;11.20;76.90;;;;;;5051456;28;20061;-96
2023/12/16 04:59:42;;;;;;;1.77;1.67;;;11.20;76.90;;;;;;5053111;28;20029;-95
2023/12/16 05:02:08;;;;;;;2.38;2.17;;;11.20;77.00;;;;;;5042726;28;20098;-84
2023/12/16 05:04:34;;;;;;;1.92;1.80;;;11.20;77.00;;;;;;5028611;28;20060;-85
2023/12/16 05:07:01;;;;;;;2.13;1.40;;;11.20;77.00;;;;;;5049787;28;20056;-85
2023/12/16 05:09:27;;;;;;;2.45;1.75;;;11.20;77.00;;;;;;5045416;28;20029;-85
2023/12/16 05:11:53;;;;;;;1.90;1.67;;;11.30;77.10;;;;;;5048269;28;20040;-83
2023/12/16 05:14:19;;;;;;;1.60;1.50;;;11.30;77.10;;;;;;5044987;28;20497;-81
2023/12/16 05:16:45;;;;;;;1.55;1.40;;;11.20;77.00;;;;;;5049072;28;20032;-82
2023/12/16 05:19:14;;;;;;;1.52;1.42;;;11.30;77.10;;;;;;5040982;28;20048;-84
2023/12/16 05:21:41;;;;;;;2.15;1.30;;;11.30;77.10;;;;;;5047966;28;20495;-86
2023/12/16 05:24:07;;;;;;;1.73;1.27;;;11.30;77.10;;;;;;5044855;28;20293;-86
2023/12/16 05:26:33;;;;;;;1.17;1.10;;;11.30;77.10;;;;;;5049044;28;20029;-88
2023/12/16 05:28:58;;;;;;;1.35;1.25;;;11.30;77.20;;;;;;5044145;28;20025;-86
2023/12/16 05:31:24;;;;;;;1.25;1.15;;;11.20;77.50;;;;;;5048688;28;20029;-89
2023/12/16 05:33:52;;;;;;;2.05;1.27;;;11.30;77.20;;;;;;5052812;28;20021;-95
2023/12/16 05:36:21;;;;;;;2.83;1.42;;;11.30;77.20;;;;;;5053134;28;20029;-96
2023/12/16 05:38:48;;;;;;;1.17;1.08;;;11.30;77.30;;;;;;5046972;28;20040;-95
2023/12/16 05:41:14;;;;;;;1.33;1.23;;;11.30;77.30;;;;;;5060142;28;20040;-96
2023/12/16 05:43:41;;;;;;;1.30;1.20;;;11.30;77.30;;;;;;5053776;28;20037;-96
2023/12/16 05:46:07;;;;;;;1.20;1.10;;;11.30;77.30;;;;;;5046538;28;20037;-96
2023/12/16 05:48:35;;;;;;;1.40;1.10;;;11.30;77.30;;;;;;5051979;28;20162;-94
2023/12/16 05:51:03;;;;;;;1.38;1.20;;;11.30;77.30;;;;;;5041588;28;20037;-94
2023/12/16 05:53:31;;;;;;;1.55;1.45;;;11.30;77.30;;;;;;5053532;28;20029;-95
2023/12/16 05:56:06;;;;;;;1.10;1.00;;;11.30;77.30;;;;;;5047427;28;20474;-96
2023/12/16 05:58:33;;;;;;;1.30;1.20;;;11.30;77.30;;;;;;5035822;28;20039;-95
2023/12/16 06:01:00;;;;;;;1.90;1.20;;;11.30;77.30;;;;;;5048451;28;20029;-95
2023/12/16 06:03:26;;;;;;;1.27;1.17;;;11.30;77.40;;;;;;5042339;28;20049;-94
2023/12/16 06:05:53;;;;;;;1.42;1.10;;;11.30;77.30;;;;;;5048363;28;20520;-91
2023/12/16 06:08:20;;;;;;;1.02;0.93;;;11.30;77.30;;;;;;5049103;28;20039;-96
2023/12/16 06:10:50;;;;;;;1.10;1.00;;;11.30;77.30;;;;;;5057432;28;20483;-94
2023/12/16 06:13:16;;;;;;;0.90;0.88;;;11.30;77.30;;;;;;5054226;28;20024;-94
2023/12/16 06:15:43;;;;;;;1.00;0.90;;;11.30;77.30;;;;;;5052268;28;20051;-90
2023/12/16 06:18:09;;;;;;;1.25;1.00;;;11.30;77.30;;;;;;5040932;28;20099;-86
2023/12/16 06:20:35;;;;;;;1.30;1.08;;;11.30;77.30;;;;;;5041210;28;20095;-95
2023/12/16 06:23:01;;;;;;;1.20;0.88;;;11.30;77.30;;;;;;5050832;28;20052;-92
2023/12/16 06:25:30;;;;;;;0.80;0.77;;;11.30;77.40;;;;;;5047365;28;20033;-93
2023/12/16 06:27:56;;;;;;;0.90;0.80;;;11.30;77.40;;;;;;5047645;28;20032;-92
2023/12/16 06:30:23;;;;;;;0.75;0.75;;;11.30;77.40;;;;;;5041656;28;20120;-92
2023/12/16 06:32:49;;;;;;;0.80;0.80;;;11.30;77.40;;;;;;5043586;28;20046;-92
2023/12/16 06:35:15;;;;;;;1.00;0.88;;;11.30;77.40;;;;;;5040526;28;20034;-93
2023/12/16 06:37:40;;;;;;;1.05;0.95;;;11.30;77.40;;;;;;5045978;28;20474;-93
2023/12/16 06:40:08;;;;;;;1.10;1.00;;;11.30;77.40;;;;;;5047023;28;20479;-92
2023/12/16 06:42:36;;;;;;;0.85;0.85;;;11.30;77.40;;;;;;5045343;28;21080;-94
2023/12/16 06:45:02;;;;;;;1.55;1.02;;;11.30;77.40;;;;;;5044894;28;20029;-93
2023/12/16 06:47:28;;;;;;;0.77;0.77;;;11.30;77.40;;;;;;5044029;28;20376;-93
2023/12/16 06:49:54;;;;;;;1.23;0.93;;;11.30;77.40;;;;;;5044304;28;20044;-96
2023/12/16 06:52:22;;;;;;;0.90;0.90;;;11.30;77.50;;;;;;5045554;28;20036;-94
2023/12/16 06:54:48;;;;;;;1.10;1.00;;;11.30;77.40;;;;;;5044995;28;20447;-93
2023/12/16 06:57:14;;;;;;;1.38;1.27;;;11.30;77.40;;;;;;5044747;28;20032;-96
2023/12/16 06:59:40;;;;;;;1.33;1.23;;;11.30;77.40;;;;;;5037089;28;20500;-90
2023/12/16 07:02:06;;;;;;;1.40;1.30;;;11.30;77.50;;;;;;5044776;28;20045;-93
2023/12/16 07:04:33;;;;;;;1.33;1.10;;;11.30;77.40;;;;;;5056062;28;20093;-94
2023/12/16 07:06:58;;;;;;;1.35;1.13;;;11.30;77.40;;;;;;5061722;28;20013;-90
2023/12/16 07:09:25;;;;;;;2.35;0.82;;;11.30;77.40;;;;;;5057363;28;20044;-86
2023/12/16 07:11:54;;;;;;;1.45;1.13;;;11.30;77.50;;;;;;5028014;28;20040;-91
2023/12/16 07:14:19;;;;;;;1.27;1.17;;;11.30;77.80;;;;;;5036926;28;20503;-87
2023/12/16 07:16:47;;;;;;;0.95;0.75;;;11.40;78.10;;;;;;5045630;28;20043;-87
2023/12/16 07:19:14;;;;;;;1.20;1.10;;;11.60;78.40;;;;;;5041702;28;20028;-87
2023/12/16 07:21:43;;;;;;;1.92;1.20;;;11.70;78.50;;;;;;5055042;28;20029;-86
2023/12/16 07:24:09;;;;;;;3.05;1.30;;;11.80;78.50;;;;;;5044980;28;20052;-89
2023/12/16 07:26:35;;;;;;;2.17;1.08;;;12.00;78.60;;;;;;5056754;28;20031;-90
2023/12/16 07:29:03;;;;;;;1.38;0.85;;;12.10;78.50;;;;;;5048459;28;20146;-86
2023/12/16 07:31:30;;;;;;;2.35;1.15;;;12.20;78.40;;;;;;5055705;28;20026;-90
2023/12/16 07:34:00;;;;;;;1.38;1.27;;;12.30;78.30;;;;;;5045847;28;20029;-91
2023/12/16 07:36:26;;;;;;;1.83;1.70;;;12.40;78.20;;;;;;5050788;28;20031;-91
2023/12/16 07:38:55;;;;;;;1.88;1.42;;;12.50;78.10;;;;;;5047724;28;20036;-90
2023/12/16 07:41:22;;;;;;;1.98;1.60;;;12.50;78.00;;;;;;5051081;28;20045;-88
2023/12/16 07:43:49;;;;;;;1.73;1.63;;;12.50;77.90;;;;;;5040801;28;20040;-92
2023/12/16 07:46:19;;;;;;;6.97;2.50;;;12.50;77.80;;;;;;5051661;28;20129;-89
2023/12/16 07:48:47;;;;;;;4.50;2.05;;;12.50;77.80;;;;;;5040278;28;20038;-90
2023/12/16 07:51:17;;;;;;;5.07;2.40;;;12.50;77.80;;;;;;5043137;28;20028;-88
2023/12/16 07:53:47;;;;;;;5.00;2.17;;;12.40;77.70;;;;;;5034540;28;20025;-88
2023/12/16 07:56:20;;;;;;;6.28;2.60;;;12.40;77.80;;;;;;5038047;28;20044;-88
2023/12/16 07:58:52;;;;;;;5.60;2.45;;;12.30;77.70;;;;;;5036079;28;20048;-89
2023/12/16 08:01:19;;;;;;;6.05;2.80;;;12.30;77.70;;;;;;5037677;28;20380;-89
2023/12/16 08:03:47;;;;;;;6.32;2.88;;;12.30;77.80;;;;;;5022295;28;20126;-90
2023/12/16 08:06:17;;;;;;;8.45;2.28;;;12.20;77.60;;;;;;5041783;28;20059;-88
2023/12/16 08:08:43;;;;;;;5.78;2.90;;;12.20;77.70;;;;;;5039921;28;20029;-90
2023/12/16 08:11:10;;;;;;;4.85;2.50;;;12.20;77.80;;;;;;5042917;28;20029;-89
2023/12/16 08:13:36;;;;;;;5.43;2.53;;;12.20;77.80;;;;;;5039823;28;20032;-88
2023/12/16 08:16:07;;;;;;;2.20;1.88;;;12.10;77.60;;;;;;5043477;28;20100;-88
2023/12/16 08:18:33;;;;;;;3.00;1.92;;;12.10;77.60;;;;;;5045450;28;20040;-88
2023/12/16 08:21:02;;;;;;;2.42;1.90;;;12.10;77.70;;;;;;5042942;28;20033;-90
2023/12/16 08:23:27;;;;;;;2.05;1.63;;;12.10;77.70;;;;;;5042360;28;20040;-90
2023/12/16 08:25:53;;;;;;;2.33;1.50;;;12.10;77.70;;;;;;5053579;28;20025;-88
2023/12/16 08:28:23;;;;;;;4.15;1.60;;;12.10;77.70;;;;;;5045954;28;20498;-89
2023/12/16 08:30:50;;;;;;;3.60;1.63;;;12.10;77.70;;;;;;5048882;28;20029;-90
2023/12/16 08:33:16;;;;;;;2.90;1.67;;;12.10;77.60;;;;;;5050720;28;20033;-90
2023/12/16 08:35:47;;;;;;;2.65;1.73;;;12.10;77.60;;;;;;5050842;28;20069;-91
2023/12/16 08:38:16;;;;;;;1.73;1.50;;;12.10;77.60;;;;;;5041954;28;20572;-90
2023/12/16 08:40:54;;;;;;;1.67;1.30;;;12.10;77.50;;;;;;5042140;28;20390;-92
2023/12/16 08:43:22;;;;;;;1.30;1.20;;;12.00;77.30;;;;;;5040578;28;20399;-90
2023/12/16 08:45:50;;;;;;;2.10;1.30;;;12.10;77.50;;;;;;5026035;28;20048;-90
2023/12/16 08:48:16;;;;;;;2.08;1.17;;;12.00;77.30;;;;;;5047329;28;20040;-92
2023/12/16 08:50:42;;;;;;;2.63;1.25;;;12.00;77.20;;;;;;5037445;28;20252;-92
2023/12/16 08:53:13;;;;;;;1.58;1.10;;;12.00;77.20;;;;;;5039122;28;20033;-91
2023/12/16 08:55:42;;;;;;;0.90;0.90;;;12.10;77.30;;;;;;5044850;28;20025;-95
2023/12/16 08:58:09;;;;;;;1.70;0.90;;;12.10;77.30;;;;;;5048450;28;20040;-90
2023/12/16 09:00:35;;;;;;;1.10;0.88;;;12.10;77.20;;;;;;5039006;28;20341;-92
2023/12/16 09:03:01;;;;;;;2.65;1.00;;;12.10;77.20;;;;;;5047672;28;20206;-90
2023/12/16 09:05:28;;;;;;;1.40;0.88;;;12.10;77.10;;;;;;5036666;28;20105;-92
2023/12/16 09:07:54;;;;;;;1.55;0.82;;;12.10;77.00;;;;;;5038074;28;20067;-91
2023/12/16 09:10:21;;;;;;;1.23;0.75;;;12.10;77.00;;;;;;5046383;28;20029;-89
2023/12/16 09:12:48;;;;;;;1.63;0.80;;;12.10;76.90;;;;;;5047114;28;20037;-88
2023/12/16 09:15:17;;;;;;;0.80;0.80;;;12.20;77.50;;;;;;5042664;28;20517;-88
2023/12/16 09:17:49;;;;;;;1.35;0.88;;;12.20;76.90;;;;;;5045777;28;20034;-88
2023/12/16 09:20:15;;;;;;;1.35;0.70;;;12.20;76.90;;;;;;5041129;28;20022;-87
2023/12/16 09:22:42;;;;;;;0.95;0.80;;;12.20;76.80;;;;;;5043015;28;20495;-86
2023/12/16 09:25:10;;;;;;;0.60;0.60;;;12.20;76.70;;;;;;5047090;28;20048;-88
2023/12/16 09:27:36;;;;;;;0.70;0.70;;;12.20;76.60;;;;;;5043266;28;20044;-86
2023/12/16 09:30:03;;;;;;;0.60;0.60;;;12.20;76.50;;;;;;5042423;28;20297;-90
2023/12/16 09:32:29;;;;;;;0.60;0.52;;;12.30;76.60;;;;;;5048612;28;20061;-90
2023/12/16 09:34:58;;;;;;;0.88;0.50;;;12.30;76.60;;;;;;5043540;28;20585;-87
2023/12/16 09:37:25;;;;;;;0.73;0.63;;;12.30;76.50;;;;;;5039968;28;20060;-89
2023/12/16 09:39:51;;;;;;;0.47;0.45;;;12.30;76.40;;;;;;5041274;28;20237;-88
2023/12/16 09:42:18;;;;;;;0.80;0.40;;;12.40;76.50;;;;;;5049266;28;20055;-88
2023/12/16 09:44:47;;;;;;;0.55;0.50;;;12.40;76.40;;;;;;5043292;28;20067;-90
2023/12/16 09:47:15;;;;;;;0.50;0.50;;;12.40;76.60;;;;;;5021437;28;20060;-92
2023/12/16 09:49:43;;;;;;;0.85;0.63;;;12.50;76.60;;;;;;5024205;28;20112;-88
2023/12/16 09:52:09;;;;;;;0.73;0.40;;;12.60;76.60;;;;;;5037624;28;20017;-92
2023/12/16 09:54:38;;;;;;;2.38;0.60;;;12.70;76.60;;;;;;5036548;28;20261;-88
2023/12/16 09:57:07;;;;;;;0.85;0.32;;;12.70;76.40;;;;;;5040569;28;20036;-88
2023/12/16 09:59:33;;;;;;;3.03;0.40;;;12.80;76.50;;;;;;5040735;28;20386;-89
2023/12/16 10:02:07;;;;;;;0.40;0.40;;;12.80;76.30;;;;;;5038389;28;20044;-94
2023/12/16 10:04:35;;;;;;;0.40;0.40;;;12.80;76.20;;;;;;5056456;28;20435;-90
2023/12/16 10:07:01;;;;;;;1.77;0.60;;;12.80;76.20;;;;;;5033026;28;20036;-90
2023/12/16 10:09:27;;;;;;;1.08;0.40;;;12.90;76.30;;;;;;5039104;28;20028;-92
2023/12/16 10:11:56;;;;;;;0.20;0.20;;;12.90;76.20;;;;;;5036074;28;20041;-91
2023/12/16 10:14:22;;;;;;;0.50;0.40;;;12.90;76.20;;;;;;5038306;28;20032;-91
2023/12/16 10:16:48;;;;;;;0.35;0.35;;;13.00;76.20;;;;;;5043609;28;20299;-90
2023/12/16 10:19:17;;;;;;;0.50;0.50;;;13.00;76.10;;;;;;5036066;28;20083;-92
2023/12/16 10:21:46;;;;;;;0.50;0.50;;;13.00;76.00;;;;;;5026155;28;20108;-91
2023/12/16 10:24:14;;;;;;;0.50;0.50;;;13.00;75.90;;;;;;5041049;28;20041;-89
2023/12/16 10:26:44;;;;;;;0.47;0.47;;;13.10;76.00;;;;;;5038627;28;20562;-90
2023/12/16 10:29:11;;;;;;;1.05;0.38;;;13.10;75.90;;;;;;5031824;28;20033;-90
2023/12/16 10:31:38;;;;;;;0.50;0.50;;;13.20;76.00;;;;;;5036216;28;20040;-91
2023/12/16 10:34:04;;;;;;;2.10;0.60;;;13.20;75.90;;;;;;5016973;28;20140;-90
2023/12/16 10:36:31;;;;;;;0.30;0.30;;;13.20;75.80;;;;;;5040580;28;20574;-90
2023/12/16 10:39:00;;;;;;;0.50;0.50;;;13.30;75.90;;;;;;5037894;28;20485;-89
2023/12/16 10:41:32;;;;;;;0.50;0.50;;;13.30;75.80;;;;;;5039505;28;20119;-95
2023/12/16 10:43:59;;;;;;;0.32;0.32;;;13.30;75.80;;;;;;5025076;28;20055;-94
2023/12/16 10:46:35;;;;;;;0.75;0.60;;;13.30;75.70;;;;;;5039048;28;20121;-93
2023/12/16 10:49:02;;;;;;;0.60;0.50;;;13.30;75.60;;;;;;5037599;28;20103;-90
2023/12/16 10:51:29;;;;;;;0.40;0.40;;;13.40;75.70;;;;;;5035430;28;20036;-92
2023/12/16 10:54:16;;;;;;;1.40;0.55;;;13.40;75.60;;;;;;5039565;28;20033;-93
2023/12/16 10:56:58;;;;;;;0.73;0.73;;;13.40;75.50;;;;;;5037668;28;20211;-92
2023/12/16 10:59:40;;;;;;;0.40;0.40;;;13.50;75.50;;;;;;5027856;28;20687;-92
2023/12/16 11:02:24;;;;;;;0.75;0.45;;;13.50;75.40;;;;;;5033782;28;20045;-92
2023/12/16 11:05:11;;;;;;;0.63;0.63;;;13.50;75.40;;;;;;5035932;28;20067;-94
2023/12/16 11:07:39;;;;;;;0.63;0.60;;;13.60;75.40;;;;;;5035439;28;20033;-91
2023/12/16 11:10:12;;;;;;;0.80;0.70;;;13.60;75.30;;;;;;5048636;28;20043;-92
2023/12/16 11:12:39;;;;;;;0.65;0.65;;;13.70;75.40;;;;;;5044862;28;20053;-95
2023/12/16 11:15:08;;;;;;;1.25;0.73;;;13.70;75.30;;;;;;5043986;28;20039;-92
2023/12/16 11:17:50;;;;;;;0.80;0.80;;;13.80;75.20;;;;;;5052747;28;20041;-90
2023/12/16 11:20:22;;;;;;;0.52;0.52;;;13.80;75.10;;;;;;5037584;28;20152;-91
2023/12/16 11:22:51;;;;;;;0.98;0.85;;;13.80;74.90;;;;;;5037663;28;20045;-92
2023/12/16 11:25:19;;;;;;;0.65;0.63;;;13.90;75.00;;;;;;5037557;28;20044;-92
2023/12/16 11:27:48;;;;;;;1.20;0.80;;;13.90;74.80;;;;;;5041785;28;20035;-91
2023/12/16 11:30:15;;;;;;;2.10;0.93;;;13.90;74.70;;;;;;5037035;28;20131;-92
2023/12/16 11:32:48;;;;;;;0.82;0.82;;;14.00;74.90;;;;;;5044621;28;20033;-90
2023/12/16 11:35:42;;;;;;;1.75;0.93;;;14.00;74.80;;;;;;5042374;28;20056;-93
2023/12/16 11:38:09;;;;;;;0.90;0.60;;;14.00;74.70;;;;;;5054888;28;20036;-92
2023/12/16 11:40:41;;;;;;;1.02;0.70;;;14.00;74.70;;;;;;5050024;28;20037;-91
2023/12/16 11:43:13;;;;;;;0.73;0.73;;;14.00;74.60;;;;;;5043239;28;20065;-94
2023/12/16 11:45:49;;;;;;;1.02;0.80;;;14.10;74.70;;;;;;5061491;28;20025;-90
2023/12/16 11:48:19;;;;;;;0.80;0.80;;;14.10;74.60;;;;;;5045072;28;20051;-90
2023/12/16 11:50:50;;;;;;;0.75;0.63;;;14.10;74.50;;;;;;5062238;28;20029;-92
2023/12/16 11:53:19;;;;;;;2.97;0.90;;;14.20;74.50;;;;;;5059609;28;20014;-92
2023/12/16 11:55:49;;;;;;;2.55;1.67;;;14.20;74.40;;;;;;5066397;28;20029;-95
2023/12/16 11:58:18;;;;;;;2.58;0.70;;;14.20;74.30;;;;;;5034836;28;20493;-92
2023/12/16 12:00:48;;;;;;;1.33;0.50;;;14.30;74.40;;;;;;5072010;28;20037;-93
2023/12/16 12:03:16;;;;;;;0.50;0.50;;;14.30;74.20;;;;;;5058646;28;20045;-93
2023/12/16 12:05:52;;;;;;;0.60;0.60;;;14.30;74.60;;;;;;5061419;28;20035;-94
2023/12/16 12:08:19;;;;;;;0.50;0.50;;;14.40;74.20;;;;;;5051558;28;20033;-93
2023/12/16 12:10:48;;;;;;;0.57;0.50;;;14.40;74.10;;;;;;5049229;28;20033;-92
2023/12/16 12:13:15;;;;;;;0.70;0.70;;;14.40;74.10;;;;;;5055294;28;20045;-96
2023/12/16 12:15:42;;;;;;;1.65;0.70;;;14.50;74.10;;;;;;5043232;28;20089;-94
2023/12/16 12:18:10;;;;;;;1.40;0.65;;;14.50;74.10;;;;;;5021875;28;20087;-92
2023/12/16 12:20:36;;;;;;;1.42;0.70;;;14.50;74.00;;;;;;5039912;28;20491;-93
2023/12/16 12:23:02;;;;;;;0.77;0.70;;;14.50;73.90;;;;;;5041437;28;20616;-92
2023/12/16 12:25:30;;;;;;;0.68;0.60;;;14.50;73.90;;;;;;5040901;28;20048;-94
2023/12/16 12:27:55;;;;;;;1.35;0.88;;;14.50;73.80;;;;;;5045302;28;20206;-94
2023/12/16 12:30:24;;;;;;;1.63;0.70;;;14.50;73.80;;;;;;5047998;28;20033;-93
2023/12/16 12:32:52;;;;;;;0.93;0.77;;;14.50;73.70;;;;;;5044442;28;20493;-93
2023/12/16 12:35:21;;;;;;;0.73;0.73;;;14.60;73.90;;;;;;5036358;28;20029;-95
2023/12/16 12:37:49;;;;;;;1.88;0.70;;;14.60;73.80;;;;;;5044187;28;20033;-91
2023/12/16 12:40:18;;;;;;;3.38;1.30;;;14.60;73.70;;;;;;5038592;28;20045;-93
2023/12/16 12:42:54;;;;;;;0.68;0.65;;;14.70;73.80;;;;;;5030950;28;20651;-91
2023/12/16 12:45:32;;;;;;;2.78;0.85;;;14.70;73.80;;;;;;5041197;28;20098;-92
2023/12/16 12:48:14;;;;;;;0.77;0.65;;;14.70;73.80;;;;;;5037288;28;20156;-95
2023/12/16 12:50:41;;;;;;;1.05;0.70;;;14.70;73.60;;;;;;5048429;28;20066;-95